createdAt,value
2019-04-29T00:00:07.369Z,7.40
2019-04-29T00:02:38.229Z,6.90
2019-04-29T00:05:09.279Z,7.17
2019-04-29T00:07:39.997Z,7.63
2019-04-29T00:10:15.733Z,6.53
2019-04-29T00:12:47.486Z,6.30
2019-04-29T00:15:19.759Z,7.00
2019-04-29T00:17:54.754Z,6.33
2019-04-29T00:20:35.674Z,6.90
2019-04-29T00:23:06.451Z,6.10
2019-04-29T00:25:37.343Z,6.13
2019-04-29T00:28:07.965Z,6.63
2019-04-29T00:30:38.606Z,6.40
2019-04-29T00:33:09.513Z,6.47
2019-04-29T00:35:40.655Z,5.90
2019-04-29T00:38:18.872Z,5.97
2019-04-29T00:40:55.457Z,5.93
2019-04-29T00:43:30.597Z,6.13
2019-04-29T00:46:04.901Z,6.07
2019-04-29T00:48:35.494Z,6.57
2019-04-29T00:51:06.259Z,6.20
2019-04-29T00:53:37.073Z,6.30
2019-04-29T00:56:07.776Z,6.53
2019-04-29T00:58:38.961Z,6.37
2019-04-29T01:01:13.088Z,6.53
2019-04-29T01:03:43.806Z,6.40
2019-04-29T01:06:14.423Z,6.10
2019-04-29T01:08:45.428Z,6.07
2019-04-29T01:11:16.148Z,6.30
2019-04-29T01:13:46.764Z,6.67
2019-04-29T01:16:17.412Z,5.90
2019-04-29T01:18:47.998Z,6.37
2019-04-29T01:21:18.877Z,6.67
2019-04-29T01:23:49.714Z,6.30
2019-04-29T01:26:38.077Z,6.77
2019-04-29T01:29:10.266Z,6.90
2019-04-29T01:31:41.047Z,6.83
2019-04-29T01:34:16.268Z,7.20
2019-04-29T01:36:48.044Z,7.17
2019-04-29T01:39:19.502Z,6.80
2019-04-29T01:41:54.419Z,7.33
2019-04-29T01:44:26.662Z,7.30
2019-04-29T01:46:57.334Z,6.60
2019-04-29T01:49:27.876Z,6.10
2019-04-29T01:51:58.523Z,6.57
2019-04-29T01:54:29.224Z,5.40
2019-04-29T01:56:59.980Z,6.00
2019-04-29T01:59:30.841Z,5.53
2019-04-29T02:02:01.689Z,6.07
2019-04-29T02:04:32.356Z,6.10
2019-04-29T02:07:02.995Z,5.60
2019-04-29T02:09:41.101Z,5.40
2019-04-29T02:12:12.827Z,5.50
2019-04-29T02:14:43.609Z,5.60
2019-04-29T02:17:14.332Z,5.27
2019-04-29T02:19:44.941Z,5.47
2019-04-29T02:22:17.254Z,5.53
2019-04-29T02:24:55.386Z,6.00
2019-04-29T02:27:26.146Z,5.10
2019-04-29T02:29:56.905Z,5.43
2019-04-29T02:32:27.698Z,5.90
2019-04-29T02:34:58.485Z,5.77
2019-04-29T02:37:30.796Z,5.67
2019-04-29T02:40:06.128Z,5.50
2019-04-29T02:42:38.487Z,6.83
2019-04-29T02:45:16.852Z,6.33
2019-04-29T02:47:47.552Z,6.63
2019-04-29T02:50:18.991Z,6.30
2019-04-29T02:52:49.766Z,6.73
2019-04-29T02:55:22.107Z,7.90
2019-04-29T02:57:57.186Z,5.97
2019-04-29T03:00:32.128Z,7.13
2019-04-29T03:03:04.346Z,7.40
2019-04-29T03:05:39.879Z,7.60
2019-04-29T03:08:09.092Z,7.67
2019-04-29T03:10:39.764Z,7.90
2019-04-29T03:13:10.576Z,7.60
2019-04-29T03:15:42.970Z,7.50
2019-04-29T03:18:14.795Z,8.37
2019-04-29T03:20:47.062Z,7.97
2019-04-29T03:23:22.312Z,8.53
2019-04-29T03:25:54.076Z,7.67
2019-04-29T03:28:24.910Z,8.77
2019-04-29T03:30:55.845Z,7.47
2019-04-29T03:33:26.644Z,7.83
2019-04-29T03:35:57.463Z,7.60
2019-04-29T03:38:28.320Z,7.50
2019-04-29T03:40:59.220Z,6.93
2019-04-29T03:43:29.950Z,6.90
2019-04-29T03:46:00.854Z,7.57
2019-04-29T03:48:31.740Z,8.13
2019-04-29T03:51:05.216Z,7.17
2019-04-29T03:53:36.115Z,7.53
2019-04-29T03:56:06.904Z,7.10
2019-04-29T03:58:37.779Z,7.47
2019-04-29T04:01:16.069Z,6.17
2019-04-29T04:03:54.825Z,6.50
2019-04-29T04:06:27.116Z,6.60
2019-04-29T04:09:06.174Z,5.97
2019-04-29T04:11:33.261Z,5.70
2019-04-29T04:14:05.254Z,5.87
2019-04-29T04:16:55.733Z,5.90
2019-04-29T04:19:29.123Z,6.13
2019-04-29T04:22:00.936Z,5.57
2019-04-29T04:24:31.535Z,5.13
2019-04-29T04:27:05.046Z,5.67
2019-04-29T04:29:35.981Z,6.00
2019-04-29T04:32:06.753Z,6.07
2019-04-29T04:34:37.607Z,6.10
2019-04-29T04:37:08.455Z,5.70
2019-04-29T04:39:40.823Z,6.07
2019-04-29T04:42:12.502Z,5.70
2019-04-29T04:44:50.519Z,5.40
2019-04-29T04:47:21.612Z,6.10
2019-04-29T04:49:52.440Z,5.53
2019-04-29T04:52:23.171Z,6.07
2019-04-29T04:54:55.657Z,6.43
2019-04-29T04:57:26.452Z,6.20
2019-04-29T04:59:57.366Z,7.13
2019-04-29T05:02:28.525Z,7.07
2019-04-29T05:05:00.744Z,7.10
2019-04-29T05:07:31.751Z,7.43
2019-04-29T05:10:02.493Z,7.80
2019-04-29T05:12:33.096Z,8.40
2019-04-29T05:15:04.811Z,10.37
2019-04-29T05:17:38.375Z,8.97
2019-04-29T05:20:11.052Z,9.63
2019-04-29T05:22:43.276Z,14.03
2019-04-29T05:25:14.166Z,14.70
2019-04-29T05:27:45.461Z,13.53
2019-04-29T05:30:16.175Z,14.17
2019-04-29T05:32:47.632Z,13.93
2019-04-29T05:35:45.569Z,13.93
2019-04-29T05:38:22.724Z,13.83
2019-04-29T05:40:56.735Z,14.27
2019-04-29T05:43:33.853Z,15.80
2019-04-29T05:46:12.302Z,15.43
2019-04-29T05:48:43.328Z,16.17
2019-04-29T05:51:18.151Z,15.33
2019-04-29T05:53:54.871Z,16.50
2019-04-29T05:56:22.769Z,17.50
2019-04-29T05:58:53.574Z,19.23
2019-04-29T06:01:26.006Z,19.73
2019-04-29T06:03:56.920Z,19.23
2019-04-29T06:06:27.824Z,21.73
2019-04-29T06:08:58.568Z,22.93
2019-04-29T06:11:29.159Z,21.47
2019-04-29T06:13:59.991Z,19.40
2019-04-29T06:16:30.679Z,17.80
2019-04-29T06:19:05.542Z,17.93
2019-04-29T06:21:33.794Z,16.17
2019-04-29T06:24:06.922Z,16.43
2019-04-29T06:26:37.643Z,16.73
2019-04-29T06:29:08.454Z,17.43
2019-04-29T06:31:39.208Z,19.07
2019-04-29T06:34:09.912Z,16.67
2019-04-29T06:36:40.526Z,16.27
2019-04-29T06:39:11.040Z,15.13
2019-04-29T06:41:45.385Z,15.53
2019-04-29T06:44:16.715Z,15.10
2019-04-29T06:46:50.245Z,14.13
2019-04-29T06:49:18.958Z,14.10
2019-04-29T06:51:49.698Z,13.50
2019-04-29T06:54:20.624Z,12.77
2019-04-29T06:56:51.375Z,12.87
2019-04-29T06:59:22.063Z,12.07
2019-04-29T07:01:52.829Z,12.70
2019-04-29T07:04:23.629Z,12.10
2019-04-29T07:06:57.525Z,11.77
2019-04-29T07:09:27.147Z,10.80
2019-04-29T07:12:01.621Z,12.50
2019-04-29T07:14:33.394Z,12.33
2019-04-29T07:17:05.703Z,11.57
2019-04-29T07:19:40.162Z,11.97
2019-04-29T07:22:13.076Z,12.43
2019-04-29T07:24:43.894Z,12.23
2019-04-29T07:27:14.565Z,12.37
2019-04-29T07:29:45.411Z,11.77
2019-04-29T07:32:16.276Z,12.00
2019-04-29T07:34:46.874Z,11.07
2019-04-29T07:37:17.514Z,11.63
2019-04-29T07:39:48.282Z,11.10
2019-04-29T07:42:18.921Z,10.97
2019-04-29T07:45:07.244Z,9.97
2019-04-29T07:47:38.783Z,9.33
2019-04-29T07:50:09.717Z,9.37
2019-04-29T07:52:45.642Z,10.07
2019-04-29T07:55:15.322Z,10.17
2019-04-29T07:57:47.772Z,9.27
2019-04-29T08:00:21.489Z,8.20
2019-04-29T08:02:52.255Z,8.97
2019-04-29T08:05:22.956Z,9.53
2019-04-29T08:07:54.278Z,9.63
2019-04-29T08:10:28.577Z,8.50
2019-04-29T08:12:59.126Z,8.33
2019-04-29T08:15:31.923Z,9.33
2019-04-29T08:18:06.628Z,9.47
2019-04-29T08:20:35.526Z,9.27
2019-04-29T08:23:07.017Z,9.83
2019-04-29T08:25:37.637Z,10.50
2019-04-29T08:28:08.331Z,10.17
2019-04-29T08:30:41.903Z,10.73
2019-04-29T08:33:13.129Z,10.90
2019-04-29T08:35:46.663Z,11.40
2019-04-29T08:38:16.584Z,10.47
2019-04-29T08:40:49.976Z,10.60
2019-04-29T08:43:33.507Z,10.40
2019-04-29T08:46:11.882Z,9.97
2019-04-29T08:48:45.796Z,8.83
2019-04-29T08:51:15.271Z,9.47
2019-04-29T08:53:45.874Z,8.57
2019-04-29T08:56:16.454Z,9.33
2019-04-29T08:58:49.200Z,7.60
2019-04-29T09:01:19.502Z,6.97
2019-04-29T09:03:53.772Z,6.87
2019-04-29T09:06:22.490Z,7.03
2019-04-29T09:08:55.523Z,45.10
2019-04-29T09:11:25.697Z,21.23
2019-04-29T09:13:56.557Z,7.50
2019-04-29T09:16:27.617Z,7.37
2019-04-29T09:18:58.250Z,7.40
2019-04-29T09:21:30.437Z,7.63
2019-04-29T09:24:01.276Z,7.20
2019-04-29T09:26:36.573Z,8.37
2019-04-29T09:29:25.282Z,8.00
2019-04-29T09:31:56.546Z,6.77
2019-04-29T09:34:27.207Z,5.93
2019-04-29T09:37:00.202Z,7.20
2019-04-29T09:39:42.492Z,6.73
2019-04-29T09:42:08.176Z,6.67
2019-04-29T09:44:45.509Z,7.30
2019-04-29T09:47:16.299Z,90.07
2019-04-29T09:49:46.894Z,9.80
2019-04-29T09:52:17.735Z,9.50
2019-04-29T09:54:48.538Z,8.47
2019-04-29T09:57:19.170Z,7.70
2019-04-29T10:00:08.913Z,7.63
2019-04-29T10:02:44.476Z,8.77
2019-04-29T10:05:29.239Z,9.03
2019-04-29T10:08:00.036Z,9.20
2019-04-29T10:10:30.762Z,7.90
2019-04-29T10:13:02.124Z,8.60
2019-04-29T10:15:34.484Z,8.00
2019-04-29T10:18:10.755Z,7.60
2019-04-29T10:20:46.344Z,8.07
2019-04-29T10:23:18.520Z,7.57
2019-04-29T10:25:49.260Z,7.83
2019-04-29T10:28:19.888Z,6.90
2019-04-29T10:30:50.906Z,6.77
2019-04-29T10:33:23.138Z,6.53
2019-04-29T10:35:54.085Z,9.17
2019-04-29T10:38:24.654Z,8.00
2019-04-29T10:41:00.690Z,7.93
2019-04-29T10:43:53.448Z,7.50
2019-04-29T10:46:39.840Z,7.30
2019-04-29T10:49:14.967Z,7.80
2019-04-29T10:51:46.357Z,7.80
2019-04-29T10:54:18.449Z,8.83
2019-04-29T10:56:51.100Z,10.07
2019-04-29T10:59:35.152Z,15.17
2019-04-29T11:02:13.474Z,17.03
2019-04-29T11:04:40.247Z,16.23
2019-04-29T11:07:19.111Z,17.90
2019-04-29T11:09:50.709Z,20.80
2019-04-29T11:12:24.418Z,21.70
2019-04-29T11:14:55.229Z,19.60
2019-04-29T11:17:27.565Z,20.00
2019-04-29T11:19:58.330Z,19.27
2019-04-29T11:22:33.900Z,18.80
2019-04-29T11:25:11.238Z,18.33
2019-04-29T11:27:49.577Z,19.47
2019-04-29T11:30:26.030Z,18.50
2019-04-29T11:33:00.095Z,20.10
2019-04-29T11:35:45.332Z,18.63
2019-04-29T11:38:17.814Z,19.17
2019-04-29T11:40:50.231Z,20.37
2019-04-29T11:43:21.029Z,22.20
2019-04-29T11:45:52.151Z,20.63
2019-04-29T11:48:22.852Z,20.90
2019-04-29T11:51:01.365Z,21.23
2019-04-29T11:53:32.263Z,21.47
2019-04-29T11:56:02.887Z,21.43
2019-04-29T11:58:38.137Z,20.83
2019-04-29T12:01:38.420Z,21.10
2019-04-29T12:04:01.476Z,20.17
2019-04-29T12:06:32.294Z,20.97
2019-04-29T12:09:06.561Z,19.67
2019-04-29T12:11:37.333Z,20.43
2019-04-29T12:14:18.318Z,19.40
2019-04-29T12:16:56.813Z,19.37
2019-04-29T12:19:32.278Z,20.13
2019-04-29T12:22:04.767Z,18.57
2019-04-29T12:24:35.785Z,18.00
2019-04-29T12:27:06.995Z,18.60
2019-04-29T12:29:37.814Z,17.00
2019-04-29T12:32:10.321Z,16.13
2019-04-29T12:34:42.882Z,17.87
2019-04-29T12:37:18.004Z,16.77
2019-04-29T12:39:50.476Z,15.70
2019-04-29T12:42:40.206Z,15.10
2019-04-29T12:45:19.916Z,15.63
2019-04-29T12:47:50.825Z,15.37
2019-04-29T12:50:22.991Z,14.83
2019-04-29T12:52:54.229Z,15.47
2019-04-29T12:55:43.640Z,16.00
2019-04-29T12:57:59.155Z,15.67
2019-04-29T13:00:46.875Z,14.57
2019-04-29T13:03:08.688Z,13.00
2019-04-29T13:05:57.929Z,12.00
2019-04-29T13:08:21.254Z,12.07
2019-04-29T13:10:53.502Z,11.13
2019-04-29T13:13:24.279Z,10.53
2019-04-29T13:16:05.657Z,10.40
2019-04-29T13:18:53.793Z,9.53
2019-04-29T13:21:22.745Z,9.73
2019-04-29T13:24:05.331Z,10.33
2019-04-29T13:26:28.303Z,8.83
2019-04-29T13:29:01.018Z,10.03
2019-04-29T13:31:38.546Z,10.00
2019-04-29T13:34:22.826Z,8.47
2019-04-29T13:36:40.185Z,10.10
2019-04-29T13:39:11.263Z,9.97
2019-04-29T13:41:56.283Z,10.60
2019-04-29T13:44:19.296Z,9.13
2019-04-29T13:46:54.090Z,9.00
2019-04-29T13:49:31.667Z,8.40
2019-04-29T13:52:03.911Z,10.03
2019-04-29T13:54:37.193Z,10.73
2019-04-29T13:57:15.612Z,10.20
2019-04-29T13:59:53.147Z,9.90
2019-04-29T14:02:36.776Z,9.27
2019-04-29T14:05:10.914Z,9.33
2019-04-29T14:07:42.110Z,10.23
2019-04-29T14:10:16.800Z,10.27
2019-04-29T14:13:00.714Z,10.10
2019-04-29T14:15:21.719Z,9.20
2019-04-29T14:17:52.727Z,9.13
2019-04-29T14:20:24.682Z,9.03
2019-04-29T14:22:55.370Z,9.13
2019-04-29T14:25:26.062Z,9.60
2019-04-29T14:27:56.825Z,9.63
2019-04-29T14:30:38.392Z,9.47
2019-04-29T14:33:03.044Z,9.57
2019-04-29T14:35:36.428Z,10.13
2019-04-29T14:38:07.135Z,11.47
2019-04-29T14:40:39.123Z,10.70
2019-04-29T14:43:31.712Z,12.27
2019-04-29T14:46:15.959Z,11.97
2019-04-29T14:48:48.024Z,12.70
2019-04-29T14:51:18.833Z,13.10
2019-04-29T14:53:56.539Z,12.73
2019-04-29T14:56:25.195Z,13.30
2019-04-29T14:59:06.584Z,14.30
2019-04-29T15:01:36.622Z,12.63
2019-04-29T15:04:18.403Z,12.40
2019-04-29T15:06:44.711Z,12.97
2019-04-29T15:09:19.830Z,13.37
2019-04-29T15:11:59.145Z,13.70
2019-04-29T15:14:33.391Z,13.27
2019-04-29T15:17:17.490Z,14.07
2019-04-29T15:19:55.832Z,14.77
2019-04-29T15:22:30.221Z,14.40
2019-04-29T15:25:01.683Z,14.23
2019-04-29T15:27:32.895Z,13.20
2019-04-29T15:30:06.317Z,14.93
2019-04-29T15:32:37.669Z,14.63
2019-04-29T15:35:08.510Z,14.07
2019-04-29T15:37:39.248Z,14.43
2019-04-29T15:40:11.503Z,15.13
2019-04-29T15:42:46.270Z,15.30
2019-04-29T15:45:16.314Z,15.47
2019-04-29T15:47:47.254Z,15.00
2019-04-29T15:50:19.437Z,15.03
2019-04-29T15:52:50.423Z,16.77
2019-04-29T15:55:21.085Z,15.60
2019-04-29T15:57:52.697Z,16.23
2019-04-29T16:00:24.996Z,16.10
2019-04-29T16:02:58.648Z,15.97
2019-04-29T16:06:11.129Z,16.57
2019-04-29T16:08:29.265Z,17.10
2019-04-29T16:10:59.320Z,16.50
2019-04-29T16:13:32.930Z,16.37
2019-04-29T16:16:03.714Z,17.87
2019-04-29T16:18:34.702Z,17.53
2019-04-29T16:21:05.453Z,18.17
2019-04-29T16:23:38.567Z,17.03
2019-04-29T16:26:08.744Z,17.60
2019-04-29T16:28:40.221Z,18.40
2019-04-29T16:31:12.175Z,17.87
2019-04-29T16:33:47.305Z,19.90
2019-04-29T16:36:16.226Z,20.23
2019-04-29T16:38:51.328Z,20.10
2019-04-29T16:41:36.376Z,22.07
2019-04-29T16:44:34.290Z,20.07
2019-04-29T16:46:47.354Z,21.13
2019-04-29T16:49:18.815Z,19.93
2019-04-29T16:51:53.442Z,20.17
2019-04-29T16:54:28.121Z,19.43
2019-04-29T16:56:56.065Z,20.83
2019-04-29T16:59:26.851Z,19.87
2019-04-29T17:01:57.822Z,18.90
2019-04-29T17:04:29.975Z,21.00
2019-04-29T17:07:12.139Z,20.37
2019-04-29T17:09:48.458Z,19.20
2019-04-29T17:12:19.324Z,18.77
2019-04-29T17:15:03.745Z,20.23
2019-04-29T17:17:29.328Z,19.17
2019-04-29T17:19:56.871Z,19.17
2019-04-29T17:22:27.929Z,19.40
2019-04-29T17:24:58.679Z,20.13
2019-04-29T17:27:46.130Z,20.10
2019-04-29T17:30:38.265Z,19.53
2019-04-29T17:33:27.754Z,20.40
2019-04-29T17:35:57.519Z,20.63
2019-04-29T17:38:28.264Z,19.70
2019-04-29T17:40:59.000Z,20.33
2019-04-29T17:43:44.749Z,19.77
2019-04-29T17:46:17.472Z,19.07
2019-04-29T17:48:54.073Z,19.07
2019-04-29T17:51:26.958Z,17.67
2019-04-29T17:54:27.943Z,19.13
2019-04-29T17:57:25.662Z,18.07
2019-04-29T17:59:45.931Z,19.23
2019-04-29T18:02:22.975Z,20.00
2019-04-29T18:05:02.086Z,20.30
2019-04-29T18:07:51.923Z,20.80
2019-04-29T18:10:24.091Z,19.57
2019-04-29T18:12:55.254Z,18.93
2019-04-29T18:15:40.182Z,17.93
2019-04-29T18:18:07.134Z,20.13
2019-04-29T18:20:39.509Z,19.20
2019-04-29T18:23:30.299Z,19.10
2019-04-29T18:26:05.472Z,18.87
2019-04-29T18:28:37.383Z,19.37
2019-04-29T18:31:09.869Z,19.80
2019-04-29T18:33:41.226Z,18.80
2019-04-29T18:36:21.787Z,19.80
2019-04-29T18:38:48.708Z,20.17
2019-04-29T18:41:24.479Z,20.03
2019-04-29T18:43:49.357Z,21.00
2019-04-29T18:46:20.160Z,20.93
2019-04-29T18:48:51.108Z,19.10
2019-04-29T18:51:25.689Z,18.57
2019-04-29T18:53:55.543Z,17.97
2019-04-29T18:56:26.388Z,18.50
2019-04-29T18:58:57.146Z,18.30
2019-04-29T19:01:28.987Z,19.17
2019-04-29T19:04:10.118Z,18.17
2019-04-29T19:06:40.711Z,18.37
2019-04-29T19:09:20.093Z,18.13
2019-04-29T19:11:46.360Z,18.30
2019-04-29T19:14:20.579Z,19.33
2019-04-29T19:16:52.722Z,18.43
2019-04-29T19:19:22.260Z,18.80
2019-04-29T19:21:52.979Z,18.30
2019-04-29T19:24:23.840Z,17.93
2019-04-29T19:27:00.549Z,17.53
2019-04-29T19:29:27.227Z,17.63
2019-04-29T19:31:57.955Z,18.13
2019-04-29T19:34:39.961Z,16.87
2019-04-29T19:37:01.192Z,17.67
2019-04-29T19:39:31.929Z,16.53
2019-04-29T19:42:02.667Z,15.87
2019-04-29T19:44:36.536Z,16.20
2019-04-29T19:47:06.168Z,16.20
2019-04-29T19:49:40.283Z,17.47
2019-04-29T19:52:09.507Z,17.57
2019-04-29T19:54:40.329Z,16.70
2019-04-29T19:57:11.091Z,17.33
2019-04-29T19:59:50.409Z,17.57
2019-04-29T20:02:16.566Z,17.00
2019-04-29T20:04:53.773Z,18.17
2019-04-29T20:07:26.117Z,18.73
2019-04-29T20:10:03.904Z,18.37
2019-04-29T20:12:28.861Z,18.10
2019-04-29T20:15:02.353Z,19.63
2019-04-29T20:17:50.669Z,18.50
2019-04-29T20:20:25.045Z,19.37
2019-04-29T20:22:56.015Z,19.60
2019-04-29T20:25:30.267Z,21.30
2019-04-29T20:28:05.749Z,19.43
2019-04-29T20:30:35.586Z,20.80
2019-04-29T20:33:09.596Z,19.83
2019-04-29T20:35:40.391Z,20.40
2019-04-29T20:38:11.682Z,19.83
2019-04-29T20:40:43.611Z,20.80
2019-04-29T20:43:15.993Z,19.97
2019-04-29T20:45:47.187Z,21.47
2019-04-29T20:48:19.617Z,20.70
2019-04-29T20:50:52.642Z,20.90
2019-04-29T20:53:30.916Z,22.97
2019-04-29T20:56:09.505Z,21.83
2019-04-29T20:58:33.270Z,22.07
2019-04-29T21:01:11.193Z,23.93
2019-04-29T21:03:46.206Z,24.03
2019-04-29T21:06:13.838Z,26.00
2019-04-29T21:08:50.871Z,23.83
2019-04-29T21:11:37.305Z,24.87
2019-04-29T21:14:12.509Z,26.07
2019-04-29T21:16:44.936Z,25.00
2019-04-29T21:19:15.713Z,26.30
2019-04-29T21:21:47.519Z,27.37
2019-04-29T21:24:18.912Z,27.17
2019-04-29T21:26:49.655Z,26.70
2019-04-29T21:29:20.443Z,26.43
2019-04-29T21:31:58.465Z,27.23
2019-04-29T21:34:25.625Z,27.03
2019-04-29T21:37:10.241Z,26.40
2019-04-29T21:39:42.716Z,26.27
2019-04-29T21:42:35.334Z,28.57
2019-04-29T21:45:08.800Z,26.70
2019-04-29T21:47:44.281Z,27.93
2019-04-29T21:50:10.235Z,29.03
2019-04-29T21:52:42.375Z,30.10
2019-04-29T21:55:13.769Z,30.80
2019-04-29T21:57:44.769Z,28.40
2019-04-29T22:00:24.091Z,28.17
2019-04-29T22:02:49.215Z,29.97
2019-04-29T22:05:22.847Z,30.60
2019-04-29T22:07:54.381Z,29.80
2019-04-29T22:10:29.021Z,30.83
2019-04-29T22:13:01.978Z,30.13
2019-04-29T22:15:37.283Z,31.10
2019-04-29T22:18:07.276Z,31.60
2019-04-29T22:20:42.292Z,33.57
2019-04-29T22:23:13.120Z,35.77
2019-04-29T22:25:45.279Z,36.47
2019-04-29T22:28:16.104Z,36.00
2019-04-29T22:30:49.916Z,35.17
2019-04-29T22:33:18.864Z,34.73
2019-04-29T22:35:49.722Z,34.73
2019-04-29T22:38:20.567Z,34.07
2019-04-29T22:40:52.474Z,33.10
2019-04-29T22:43:40.233Z,36.67
2019-04-29T22:46:10.667Z,35.80
2019-04-29T22:48:45.384Z,35.47
2019-04-29T22:51:17.600Z,36.90
2019-04-29T22:53:48.162Z,37.27
2019-04-29T22:56:19.205Z,34.43
2019-04-29T22:58:50.030Z,36.43
2019-04-29T23:01:20.737Z,38.63
2019-04-29T23:03:51.320Z,41.13
2019-04-29T23:06:22.318Z,37.70
2019-04-29T23:08:53.094Z,39.30
2019-04-29T23:11:23.858Z,37.07
2019-04-29T23:13:55.459Z,39.47
2019-04-29T23:16:26.419Z,35.37
2019-04-29T23:18:57.238Z,34.93
2019-04-29T23:21:37.408Z,37.67
2019-04-29T23:24:13.260Z,37.00
2019-04-29T23:26:42.305Z,38.43
2019-04-29T23:29:12.102Z,38.13
2019-04-29T23:31:43.293Z,36.10
2019-04-29T23:34:15.549Z,37.27
2019-04-29T23:36:48.903Z,34.13
2019-04-29T23:39:18.726Z,36.00
2019-04-29T23:41:49.518Z,38.40
2019-04-29T23:44:20.254Z,37.20
2019-04-29T23:46:51.090Z,35.87
2019-04-29T23:49:21.839Z,35.83
2019-04-29T23:51:52.426Z,36.23
2019-04-29T23:54:24.861Z,37.73
2019-04-29T23:57:03.325Z,37.03
2019-04-29T23:59:47.310Z,39.23
